createdAt,value
2019-01-14T07:13:20.805Z,4.10
2019-01-14T07:22:32.668Z,4.10
2019-01-14T07:25:14.219Z,4.10
2019-01-14T07:28:08.661Z,4.10
2019-01-14T07:31:10.676Z,4.10
2019-01-14T07:36:36.487Z,4.00
2019-01-14T07:41:46.683Z,4.00
2019-01-14T07:55:04.321Z,3.80
2019-01-14T08:09:11.143Z,3.70
2019-01-14T08:10:37.361Z,3.70
2019-01-14T08:20:03.333Z,3.80
2019-01-14T08:35:33.995Z,3.30
2019-01-14T08:38:07.781Z,3.30
2019-01-14T08:40:36.656Z,3.20
2019-01-14T08:43:08.840Z,3.10
2019-01-14T08:45:37.323Z,3.10
2019-01-14T08:48:11.025Z,3.10
2019-01-14T08:50:40.946Z,3.10
2019-01-14T08:53:54.556Z,3.00
2019-01-14T08:56:54.282Z,3.00
2019-01-14T08:58:37.421Z,3.10
2019-01-14T09:01:08.872Z,3.10
2019-01-14T09:03:48.297Z,3.20
2019-01-14T09:06:16.901Z,3.30
2019-01-14T09:08:45.628Z,3.30
2019-01-14T09:11:14.301Z,3.40
2019-01-14T09:13:43.059Z,3.30
2019-01-14T09:16:11.602Z,3.20
2019-01-14T09:18:40.319Z,3.10
2019-01-14T09:21:13.053Z,3.00
2019-01-14T09:23:43.234Z,3.00
2019-01-14T09:26:14.876Z,2.90
2019-01-14T09:28:43.552Z,2.90
2019-01-14T09:31:15.232Z,2.90
2019-01-14T09:33:46.005Z,2.90
2019-01-14T09:36:17.557Z,2.90
2019-01-14T09:38:48.742Z,3.00
2019-01-14T09:41:17.500Z,3.00
2019-01-14T09:43:56.003Z,3.00
2019-01-14T09:46:25.364Z,3.10
2019-01-14T09:48:54.359Z,3.20
2019-01-14T09:51:27.151Z,3.20
2019-01-14T09:53:55.830Z,3.20
2019-01-14T09:56:24.528Z,3.30
2019-01-14T09:58:52.991Z,3.30
2019-01-14T10:01:24.126Z,3.30
2019-01-14T10:03:52.795Z,3.30
2019-01-14T10:06:24.392Z,3.30
2019-01-14T10:08:53.118Z,3.40
2019-01-14T10:11:28.481Z,3.40
2019-01-14T10:14:00.029Z,3.40
2019-01-14T10:16:30.826Z,3.20
2019-01-14T10:18:59.196Z,3.20
2019-01-14T10:21:27.987Z,3.20
2019-01-14T10:23:58.417Z,3.10
2019-01-14T10:26:29.920Z,3.00
2019-01-14T10:28:58.743Z,3.00
2019-01-14T10:31:36.075Z,3.00
2019-01-14T10:34:02.913Z,3.10
2019-01-14T10:36:33.490Z,3.10
2019-01-14T10:39:05.433Z,3.20
2019-01-14T10:41:48.661Z,3.30
2019-01-14T10:44:18.823Z,3.40
2019-01-14T10:46:50.450Z,3.40
2019-01-14T10:49:24.655Z,3.50
2019-01-14T10:52:10.420Z,3.60
2019-01-14T10:54:46.850Z,3.70
2019-01-14T10:57:21.691Z,3.70
2019-01-14T10:59:51.130Z,3.70
2019-01-14T11:02:24.910Z,3.60
2019-01-14T11:05:03.427Z,3.50
2019-01-14T11:07:38.905Z,3.40
2019-01-14T11:10:06.124Z,3.40
2019-01-14T11:12:39.566Z,3.40
2019-01-14T11:15:14.060Z,3.30
2019-01-14T11:17:46.115Z,3.20
2019-01-14T11:20:21.721Z,3.20
2019-01-14T11:22:57.895Z,3.00
2019-01-14T11:25:29.987Z,2.90
2019-01-14T11:28:03.463Z,2.90
2019-01-14T11:30:33.881Z,2.90
2019-01-14T11:33:02.598Z,2.80
2019-01-14T11:35:31.492Z,2.60
2019-01-14T11:38:03.032Z,2.60
2019-01-14T11:40:54.094Z,2.70
2019-01-14T11:43:20.254Z,2.70
2019-01-14T11:45:50.600Z,2.80
2019-01-14T11:48:20.565Z,2.80
2019-01-14T11:50:52.332Z,2.80
2019-01-14T11:53:21.045Z,2.80
2019-01-14T11:55:53.020Z,2.60
2019-01-14T11:58:23.953Z,2.70
2019-01-14T12:00:54.576Z,2.70
2019-01-14T12:03:24.905Z,2.70
2019-01-14T12:05:55.488Z,2.80
2019-01-14T12:08:26.135Z,2.90
2019-01-14T12:10:57.542Z,2.80
2019-01-14T12:13:37.164Z,2.80
2019-01-14T12:16:14.492Z,2.80
2019-01-14T12:18:44.970Z,2.80
2019-01-14T12:21:23.085Z,2.70
2019-01-14T12:24:00.568Z,2.70
2019-01-14T12:26:33.002Z,2.60
2019-01-14T12:29:09.935Z,2.60
2019-01-14T12:31:35.802Z,2.50
2019-01-14T12:34:04.493Z,2.50
2019-01-14T12:36:33.154Z,2.50
2019-01-14T12:39:03.956Z,2.50
2019-01-14T12:41:32.700Z,2.60
2019-01-14T12:44:06.374Z,2.50
2019-01-14T12:46:36.528Z,2.50
2019-01-14T12:49:08.746Z,2.50
2019-01-14T12:51:42.175Z,2.50
2019-01-14T12:54:10.445Z,2.50
2019-01-14T12:56:38.958Z,2.50
2019-01-14T12:59:07.650Z,2.50
2019-01-14T13:01:36.315Z,2.40
2019-01-14T13:04:04.833Z,2.40
2019-01-14T13:06:33.466Z,2.30
2019-01-14T13:09:02.097Z,2.40
2019-01-14T13:11:30.629Z,2.50
2019-01-14T13:14:00.341Z,2.40
2019-01-14T13:16:54.225Z,2.30
2019-01-14T13:19:26.894Z,2.30
2019-01-14T13:21:55.357Z,2.70
2019-01-14T13:24:26.143Z,2.90
2019-01-14T13:26:54.481Z,2.90
2019-01-14T13:29:23.073Z,2.90
2019-01-14T13:31:52.782Z,3.40
2019-01-14T13:34:26.693Z,4.00
2019-01-14T13:36:53.799Z,4.40
2019-01-14T13:39:37.537Z,5.00
2019-01-14T13:42:15.175Z,5.00
2019-01-14T13:44:48.176Z,4.50
2019-01-14T13:47:22.906Z,3.50
2019-01-14T13:49:51.898Z,3.00
2019-01-14T13:52:23.521Z,2.50
2019-01-14T13:55:04.982Z,2.20
2019-01-14T13:57:33.698Z,2.10
2019-01-14T14:00:04.037Z,2.00
2019-01-14T14:05:40.822Z,1.80
2019-01-14T14:06:22.236Z,1.90
2019-01-14T14:08:16.859Z,1.70
2019-01-14T14:10:47.248Z,1.70
2019-01-14T14:13:20.684Z,1.60
2019-01-14T14:15:48.938Z,1.60
2019-01-14T14:18:20.703Z,1.60
2019-01-14T14:20:51.135Z,1.60
2019-01-14T14:23:19.987Z,1.60
2019-01-14T14:25:49.755Z,1.40
2019-01-14T14:28:18.434Z,1.30
2019-01-14T14:30:50.322Z,1.10
2019-01-14T14:33:36.225Z,0.90
2019-01-14T14:36:04.975Z,0.80
2019-01-14T14:38:36.152Z,0.60
2019-01-14T14:41:10.418Z,0.40
2019-01-14T14:43:39.971Z,0.40
2019-01-14T14:46:11.800Z,0.20
2019-01-14T14:48:40.337Z,0.10
2019-01-14T14:51:10.305Z,-0.30
2019-01-14T14:53:38.996Z,-0.50
2019-01-14T14:56:07.612Z,-0.70
2019-01-14T14:58:37.934Z,-0.80
2019-01-14T15:01:09.285Z,-0.80
2019-01-14T15:03:37.986Z,-0.80
2019-01-14T15:06:08.082Z,-0.70
2019-01-14T15:08:36.667Z,-0.70
2019-01-14T15:11:05.151Z,-0.60
2019-01-14T15:13:33.686Z,-0.60
2019-01-14T15:16:02.656Z,-0.50
2019-01-14T15:18:31.322Z,-0.60
2019-01-14T15:20:59.768Z,-0.60
2019-01-14T15:23:36.403Z,-0.70
2019-01-14T15:26:01.986Z,-0.70
2019-01-14T15:28:33.312Z,-0.70
2019-01-14T15:31:01.917Z,-0.70
2019-01-14T15:33:30.715Z,-0.70
2019-01-14T15:35:59.541Z,-0.70
2019-01-14T15:38:29.894Z,-0.70
2019-01-14T15:41:05.889Z,-0.80
2019-01-14T15:43:38.118Z,-0.80
2019-01-14T15:46:17.695Z,-0.80
2019-01-14T15:48:49.674Z,-0.80
2019-01-14T15:51:18.435Z,-0.80
2019-01-14T15:53:48.870Z,-0.80
2019-01-14T15:56:17.354Z,-0.80
2019-01-14T15:58:45.859Z,-0.80
2019-01-14T16:01:14.430Z,-0.90
2019-01-14T16:03:43.007Z,-0.90
2019-01-14T16:06:11.791Z,-0.90
2019-01-14T16:08:40.432Z,-0.90
2019-01-14T16:11:09.092Z,-0.90
2019-01-14T16:13:37.848Z,-0.90
2019-01-14T16:16:06.327Z,-0.90
2019-01-14T16:18:37.324Z,-0.90
2019-01-14T16:21:05.938Z,-0.90
2019-01-14T16:23:34.400Z,-1.00
2019-01-14T16:26:02.940Z,-1.00
2019-01-14T16:28:31.707Z,-1.00
2019-01-14T16:31:00.450Z,-1.00
2019-01-14T16:33:29.023Z,-1.00
2019-01-14T16:35:59.266Z,-1.00
2019-01-14T16:38:27.710Z,-0.90
2019-01-14T16:40:56.168Z,-0.90
2019-01-14T16:43:24.646Z,-0.80
2019-01-14T16:46:00.716Z,-0.90
2019-01-14T16:48:34.128Z,-1.00
2019-01-14T16:51:02.646Z,-1.00
2019-01-14T16:53:32.304Z,-1.00
2019-01-14T16:56:02.297Z,-1.00
2019-01-14T16:58:31.373Z,-1.00
2019-01-14T17:01:00.055Z,-1.00
2019-01-14T17:03:28.634Z,-1.10
2019-01-14T17:06:00.586Z,-1.10
2019-01-14T17:08:29.231Z,-1.10
2019-01-14T17:10:57.756Z,-1.20
2019-01-14T17:13:28.386Z,-1.20
2019-01-14T17:16:02.421Z,-1.20
2019-01-14T17:18:33.465Z,-1.30
2019-01-14T17:21:03.902Z,-1.30
2019-01-14T17:23:32.279Z,-1.30
2019-01-14T17:26:02.463Z,-1.30
2019-01-14T17:28:30.981Z,-1.30
2019-01-14T17:31:05.440Z,-1.30
2019-01-14T17:33:34.097Z,-1.40
2019-01-14T17:36:10.224Z,-1.30
2019-01-14T17:39:10.883Z,-1.30
2019-01-14T17:41:21.624Z,-1.30
2019-01-14T17:43:50.410Z,-1.30
2019-01-14T17:46:19.238Z,-1.40
2019-01-14T17:48:52.264Z,-1.40
2019-01-14T17:51:25.497Z,-1.40
2019-01-14T17:53:54.203Z,-1.40
2019-01-14T17:56:29.373Z,-1.30
2019-01-14T17:59:02.732Z,-1.30
2019-01-14T18:04:35.242Z,-1.30
2019-01-14T18:07:07.747Z,-1.30
2019-01-14T18:09:37.348Z,-1.30
2019-01-14T18:12:06.087Z,-1.30
2019-01-14T18:14:37.730Z,-1.30
2019-01-14T18:17:06.534Z,-1.30
2019-01-14T18:19:41.314Z,-1.30
2019-01-14T18:22:11.563Z,-1.30
2019-01-14T18:24:40.403Z,-1.30
2019-01-14T18:27:10.720Z,-1.30
2019-01-14T18:29:39.343Z,-1.30
2019-01-14T18:32:08.124Z,-1.30
2019-01-14T18:34:39.385Z,-1.30
2019-01-14T18:37:07.979Z,-1.30
2019-01-14T18:39:40.167Z,-1.40
2019-01-14T18:42:08.938Z,-1.40
2019-01-14T18:44:37.767Z,-1.40
2019-01-14T18:47:20.618Z,-1.40
2019-01-14T18:50:06.712Z,-1.50
2019-01-14T18:55:28.161Z,-1.50
2019-01-14T18:57:56.877Z,-1.50
2019-01-14T19:00:26.836Z,-1.50
2019-01-14T19:02:59.092Z,-1.50
2019-01-14T19:05:29.900Z,-1.40
2019-01-14T19:07:59.739Z,-1.50
2019-01-14T19:10:28.369Z,-1.50
2019-01-14T19:12:58.190Z,-1.50
2019-01-14T19:15:26.838Z,-1.50
2019-01-14T19:17:55.633Z,-1.50
2019-01-14T19:20:27.801Z,-1.50
2019-01-14T19:22:58.070Z,-1.60
2019-01-14T19:25:26.707Z,-1.60
2019-01-14T19:27:55.431Z,-1.60
2019-01-14T19:30:25.564Z,-1.60
2019-01-14T19:32:57.506Z,-1.60
2019-01-14T19:35:37.941Z,-1.60
2019-01-14T19:38:07.571Z,-1.60
2019-01-14T19:40:36.435Z,-1.60
2019-01-14T19:43:05.007Z,-1.60
2019-01-14T19:46:43.706Z,-1.60
2019-01-14T19:49:30.421Z,-1.60
2019-01-14T19:51:19.227Z,-1.70
2019-01-14T19:53:52.530Z,-1.70
2019-01-14T19:56:23.822Z,-1.70
2019-01-14T19:59:00.839Z,-1.70
2019-01-14T20:01:40.027Z,-1.60
2019-01-14T20:04:08.779Z,-1.60
2019-01-14T20:06:40.619Z,-1.60
2019-01-14T20:09:09.353Z,-1.70
2019-01-14T20:11:38.028Z,-1.60
2019-01-14T20:14:08.252Z,-1.70
2019-01-14T20:16:37.031Z,-1.60
2019-01-14T20:19:05.746Z,-1.60
2019-01-14T20:21:44.589Z,-1.60
2019-01-14T20:24:23.759Z,-1.60
2019-01-14T20:26:52.706Z,-1.60
2019-01-14T20:29:21.519Z,-1.70
2019-01-14T20:31:50.217Z,-1.70
2019-01-14T20:34:19.106Z,-1.70
2019-01-14T20:36:47.819Z,-1.70
2019-01-14T20:39:16.859Z,-1.60
2019-01-14T20:44:40.038Z,-1.60
2019-01-14T20:47:14.930Z,-1.60
2019-01-14T20:49:45.368Z,-1.70
2019-01-14T20:52:16.316Z,-1.60
2019-01-14T20:54:49.103Z,-1.60
2019-01-14T20:57:19.468Z,-1.50
2019-01-14T20:59:49.447Z,-1.50
2019-01-14T21:02:23.758Z,-1.40
2019-01-14T21:04:56.502Z,-1.30
2019-01-14T21:11:23.560Z,-1.10
2019-01-14T21:14:04.723Z,-1.00
2019-01-14T21:16:36.603Z,-1.00
2019-01-14T21:19:23.665Z,-0.90
2019-01-14T21:21:52.652Z,-0.80
2019-01-14T21:24:23.361Z,-0.80
2019-01-14T21:26:57.128Z,-0.80
2019-01-14T21:29:26.119Z,-0.80
2019-01-14T21:31:55.035Z,-0.80
2019-01-14T21:34:23.797Z,-0.80
2019-01-14T21:36:53.339Z,-0.70
2019-01-14T21:39:22.897Z,-0.70
2019-01-14T21:41:51.685Z,-0.70
2019-01-14T21:44:25.677Z,-0.70
2019-01-14T21:46:55.921Z,-0.70
2019-01-14T21:49:31.832Z,-0.70
2019-01-14T21:52:00.576Z,-0.60
2019-01-14T21:54:32.548Z,-0.60
2019-01-14T21:57:02.888Z,-0.60
2019-01-14T21:59:36.058Z,-0.60
2019-01-14T22:02:05.353Z,-0.50
2019-01-14T22:04:39.675Z,-0.50
2019-01-14T22:07:12.544Z,-0.50
2019-01-14T22:09:42.354Z,-0.50
2019-01-14T22:12:11.093Z,-0.50
2019-01-14T22:14:46.444Z,-0.50
2019-01-14T22:17:15.085Z,-0.40
2019-01-14T22:19:46.449Z,-0.50
2019-01-14T22:22:15.511Z,-0.40
2019-01-14T22:24:45.768Z,-0.40
2019-01-14T22:27:33.494Z,-0.40
2019-01-14T22:30:11.027Z,-0.40
2019-01-14T22:33:04.641Z,-0.40
2019-01-14T22:35:33.155Z,-0.40
2019-01-14T22:40:59.204Z,-0.50
2019-01-14T22:43:28.652Z,-0.50
2019-01-14T22:46:18.304Z,-0.50
2019-01-14T22:48:49.076Z,-0.50
2019-01-14T22:51:17.737Z,-0.40
2019-01-14T22:53:48.411Z,-0.40
2019-01-14T22:56:16.878Z,-0.40
2019-01-14T22:58:45.368Z,-0.40
2019-01-14T23:01:17.333Z,-0.40
2019-01-14T23:03:46.019Z,-0.40
2019-01-14T23:06:14.951Z,-0.40
2019-01-14T23:08:45.022Z,-0.40
2019-01-14T23:11:13.772Z,-0.40
2019-01-14T23:14:00.799Z,-0.40
2019-01-14T23:16:29.936Z,-0.40
2019-01-14T23:18:58.729Z,-0.30
2019-01-14T23:21:29.243Z,-0.40
2019-01-14T23:23:59.086Z,-0.30
2019-01-14T23:26:27.890Z,-0.30
2019-01-14T23:29:14.682Z,-0.30
2019-01-14T23:31:44.232Z,-0.40
2019-01-14T23:34:12.858Z,-0.40
2019-01-14T23:36:41.558Z,-0.40
2019-01-14T23:39:15.989Z,-0.40
2019-01-14T23:41:44.756Z,-0.40
2019-01-14T23:44:16.313Z,-0.40
2019-01-14T23:46:45.007Z,-0.40
2019-01-14T23:52:42.302Z,-0.40
2019-01-14T23:55:11.082Z,-0.50
2019-01-14T23:57:39.632Z,-0.50
